createdAt,value
2022-10-28T00:02:24.898Z,101287.13
2022-10-28T00:04:51.605Z,101282.75
2022-10-28T00:07:19.247Z,101280.66
2022-10-28T00:09:45.930Z,101286.78
2022-10-28T00:12:12.534Z,101288.09
2022-10-28T00:14:39.241Z,101292.94
2022-10-28T00:17:05.851Z,101290.69
2022-10-28T00:19:32.531Z,101290.75
2022-10-28T00:21:59.355Z,101284.69
2022-10-28T00:24:26.174Z,101283.56
2022-10-28T00:26:52.754Z,101278.66
2022-10-28T00:29:20.412Z,101273.31
2022-10-28T00:31:47.709Z,101275.06
2022-10-28T00:34:15.889Z,101273.78
2022-10-28T00:36:43.645Z,101270.84
2022-10-28T00:39:13.045Z,101268.72
2022-10-28T00:41:40.763Z,101270.84
2022-10-28T00:44:26.244Z,101270.91
2022-10-28T00:46:53.367Z,101270.53
2022-10-28T00:49:30.204Z,101269.47
2022-10-28T00:52:00.096Z,101266.03
2022-10-28T00:54:27.230Z,101267.66
2022-10-28T00:56:55.758Z,101270.53
2022-10-28T00:59:31.793Z,101267.59
2022-10-28T01:01:58.787Z,101270.34
2022-10-28T01:04:25.520Z,101258.16
2022-10-28T01:06:52.770Z,101261.34
2022-10-28T01:09:20.329Z,101259.09
2022-10-28T01:11:51.323Z,101256.13
2022-10-28T01:14:20.862Z,101246.19
2022-10-28T01:16:50.389Z,101248.63
2022-10-28T01:19:16.884Z,101246.69
2022-10-28T01:21:52.572Z,101240.84
2022-10-28T01:24:26.815Z,101246.19
2022-10-28T01:27:13.610Z,101245.38
2022-10-28T01:30:00.638Z,101243.25
2022-10-28T01:32:47.546Z,101241.94
2022-10-28T01:35:18.936Z,101240.03
2022-10-28T01:37:55.560Z,101242.44
2022-10-28T01:40:48.721Z,101245.28
2022-10-28T01:43:18.333Z,101243.81
2022-10-28T01:45:52.109Z,101237.31
2022-10-28T01:48:21.414Z,101235.34
2022-10-28T01:50:47.935Z,101227.66
2022-10-28T01:53:17.275Z,101229.13
2022-10-28T01:55:46.370Z,101227.31
2022-10-28T01:58:15.247Z,101230.00
2022-10-28T02:00:43.211Z,101231.28
2022-10-28T02:03:09.986Z,101233.97
2022-10-28T02:05:41.221Z,101237.56
2022-10-28T02:08:15.368Z,101238.97
2022-10-28T02:10:46.575Z,101234.75
2022-10-28T02:13:14.545Z,101238.50
2022-10-28T02:15:48.014Z,101240.28
2022-10-28T02:18:26.590Z,101238.13
2022-10-28T02:20:59.777Z,101237.59
2022-10-28T02:23:27.421Z,101238.41
2022-10-28T02:26:00.818Z,101231.06
2022-10-28T02:28:39.002Z,101235.47
2022-10-28T02:31:25.184Z,101246.50
2022-10-28T02:33:54.579Z,101251.88
2022-10-28T02:36:22.870Z,101246.97
2022-10-28T02:38:50.617Z,101238.56
2022-10-28T02:41:25.869Z,101235.34
2022-10-28T02:43:54.747Z,101234.53
2022-10-28T02:46:21.587Z,101230.94
2022-10-28T02:48:50.848Z,101225.28
2022-10-28T02:51:20.154Z,101226.72
2022-10-28T02:54:00.488Z,101234.81
2022-10-28T02:56:28.073Z,101229.44
2022-10-28T02:58:54.634Z,101232.31
2022-10-28T03:01:22.223Z,101227.66
2022-10-28T03:03:48.968Z,101228.28
2022-10-28T03:06:15.633Z,101232.06
2022-10-28T03:08:42.196Z,101231.38
2022-10-28T03:11:08.718Z,101238.22
2022-10-28T03:13:35.274Z,101224.72
2022-10-28T03:16:01.832Z,101220.75
2022-10-28T03:18:28.425Z,101218.25
2022-10-28T03:20:58.063Z,101222.97
2022-10-28T03:23:27.896Z,101215.34
2022-10-28T03:25:54.522Z,101214.38
2022-10-28T03:28:21.071Z,101220.19
2022-10-28T03:30:47.661Z,101213.69
2022-10-28T03:33:14.239Z,101203.97
2022-10-28T03:35:43.088Z,101195.25
2022-10-28T03:38:09.676Z,101196.50
2022-10-28T03:40:36.284Z,101202.97
2022-10-28T03:43:02.835Z,101195.81
2022-10-28T03:48:00.848Z,101194.31
2022-10-28T03:50:27.494Z,101194.84
2022-10-28T03:52:54.096Z,101201.00
2022-10-28T03:55:20.625Z,101200.03
2022-10-28T03:57:47.151Z,101205.38
2022-10-28T04:00:14.223Z,101208.34
2022-10-28T04:02:41.219Z,101213.38
2022-10-28T04:05:07.915Z,101211.41
2022-10-28T04:07:34.915Z,101219.31
2022-10-28T04:10:01.425Z,101222.69
2022-10-28T04:12:29.811Z,101222.50
2022-10-28T04:14:56.461Z,101210.16
2022-10-28T04:17:23.131Z,101208.34
2022-10-28T04:19:49.686Z,101202.16
2022-10-28T04:22:16.224Z,101199.41
2022-10-28T04:24:42.754Z,101202.78
2022-10-28T04:27:09.463Z,101201.00
2022-10-28T04:29:36.322Z,101205.88
2022-10-28T04:32:02.901Z,101204.13
2022-10-28T04:34:29.532Z,101205.28
2022-10-28T04:36:56.058Z,101201.53
2022-10-28T04:39:22.578Z,101196.06
2022-10-28T04:41:49.188Z,101194.28
2022-10-28T04:44:15.807Z,101201.59
2022-10-28T04:46:42.325Z,101204.75
2022-10-28T04:49:09.033Z,101208.75
2022-10-28T04:51:35.628Z,101200.09
2022-10-28T04:54:02.216Z,101200.28
2022-10-28T04:56:31.052Z,101203.97
2022-10-28T04:58:57.583Z,101209.09
2022-10-28T05:01:24.290Z,101198.13
2022-10-28T05:03:50.961Z,101203.31
2022-10-28T05:06:17.520Z,101210.31
2022-10-28T05:08:44.141Z,101201.72
2022-10-28T05:11:10.638Z,101198.13
2022-10-28T05:13:37.155Z,101196.97
2022-10-28T05:16:03.862Z,101196.97
2022-10-28T05:18:30.430Z,101194.09
2022-10-28T05:20:56.986Z,101191.31
2022-10-28T05:23:27.134Z,101185.50
2022-10-28T05:27:34.848Z,101187.59
2022-10-28T05:30:01.592Z,101181.28
2022-10-28T05:32:29.793Z,101190.69
2022-10-28T05:34:56.328Z,101191.31
2022-10-28T05:37:22.849Z,101192.75
2022-10-28T05:39:49.457Z,101178.59
2022-10-28T05:42:16.017Z,101179.22
2022-10-28T05:44:42.574Z,101174.56
2022-10-28T05:47:09.093Z,101182.19
2022-10-28T05:49:35.631Z,101178.59
2022-10-28T05:52:02.471Z,101182.81
2022-10-28T05:54:29.029Z,101186.41
2022-10-28T05:56:55.588Z,101190.16
2022-10-28T05:59:23.782Z,101189.34
2022-10-28T06:01:50.420Z,101189.00
2022-10-28T06:04:17.080Z,101183.44
2022-10-28T06:06:43.878Z,101187.84
2022-10-28T06:09:10.497Z,101191.88
2022-10-28T06:11:37.160Z,101194.84
2022-10-28T06:14:03.702Z,101185.06
2022-10-28T06:16:30.450Z,101197.09
2022-10-28T06:18:57.022Z,101204.34
2022-10-28T06:21:23.605Z,101204.06
2022-10-28T06:23:50.765Z,101205.88
2022-10-28T06:26:17.443Z,101209.28
2022-10-28T06:28:45.687Z,101211.06
2022-10-28T06:31:12.277Z,101208.31
2022-10-28T06:33:38.958Z,101213.13
2022-10-28T06:36:05.868Z,101205.16
2022-10-28T06:38:32.456Z,101211.63
2022-10-28T06:40:59.007Z,101208.72
2022-10-28T06:43:25.628Z,101197.53
2022-10-28T06:45:55.416Z,101209.44
2022-10-28T06:48:24.025Z,101222.72
2022-10-28T06:50:50.663Z,101227.66
2022-10-28T06:53:17.279Z,101237.13
2022-10-28T06:55:48.832Z,101244.94
2022-10-28T06:58:15.574Z,101240.09
2022-10-28T07:00:42.143Z,101242.16
2022-10-28T07:03:09.485Z,101249.44
2022-10-28T07:05:36.260Z,101249.09
2022-10-28T07:08:02.820Z,101253.94
2022-10-28T07:10:29.312Z,101256.47
2022-10-28T07:12:56.347Z,101250.03
2022-10-28T07:15:23.476Z,101238.66
2022-10-28T07:17:54.202Z,101246.88
2022-10-28T07:20:21.265Z,101245.56
2022-10-28T07:22:47.833Z,101251.38
2022-10-28T07:25:14.458Z,101246.28
2022-10-28T07:27:40.974Z,101254.72
2022-10-28T07:30:07.915Z,101256.38
2022-10-28T07:32:34.453Z,101252.06
2022-10-28T07:35:01.097Z,101253.31
2022-10-28T07:37:29.465Z,101252.41
2022-10-28T07:39:56.065Z,101256.00
2022-10-28T07:42:22.630Z,101256.00
2022-10-28T07:44:49.308Z,101253.84
2022-10-28T07:47:17.673Z,101256.28
2022-10-28T07:49:44.257Z,101257.38
2022-10-28T07:52:10.843Z,101258.53
2022-10-28T07:54:37.390Z,101249.75
2022-10-28T07:57:03.983Z,101242.44
2022-10-28T07:59:30.535Z,101245.78
2022-10-28T08:01:57.087Z,101247.09
2022-10-28T08:04:23.672Z,101247.88
2022-10-28T08:06:50.338Z,101247.88
2022-10-28T08:09:16.947Z,101244.06
2022-10-28T08:11:43.945Z,101241.78
2022-10-28T08:14:10.540Z,101253.09
2022-10-28T08:16:37.123Z,101248.00
2022-10-28T08:19:07.462Z,101253.66
2022-10-28T08:21:34.387Z,101250.53
2022-10-28T08:24:00.958Z,101255.19
2022-10-28T08:26:27.507Z,101252.41
2022-10-28T08:28:54.183Z,101259.69
2022-10-28T08:31:20.791Z,101260.44
2022-10-28T08:33:47.521Z,101250.50
2022-10-28T08:36:15.698Z,101242.28
2022-10-28T08:38:45.525Z,101253.63
2022-10-28T08:41:24.840Z,101251.91
2022-10-28T08:44:10.203Z,101244.19
2022-10-28T08:46:39.759Z,101248.69
2022-10-28T08:49:10.307Z,101257.53
2022-10-28T08:51:39.874Z,101251.72
2022-10-28T08:54:11.805Z,101248.09
2022-10-28T08:56:47.372Z,101254.31
2022-10-28T08:59:18.373Z,101258.53
2022-10-28T09:01:49.996Z,101258.63
2022-10-28T09:04:22.455Z,101259.97
2022-10-28T09:06:49.068Z,101258.06
2022-10-28T09:09:20.270Z,101257.13
2022-10-28T09:11:49.818Z,101250.38
2022-10-28T09:14:16.479Z,101256.31
2022-10-28T09:16:55.234Z,101252.09
2022-10-28T09:19:31.016Z,101244.84
2022-10-28T09:22:20.709Z,101247.19
2022-10-28T09:24:51.534Z,101243.38
2022-10-28T09:27:33.105Z,101242.06
2022-10-28T09:30:10.797Z,101241.97
2022-10-28T09:32:40.408Z,101246.38
2022-10-28T09:35:12.724Z,101245.19
2022-10-28T09:37:44.572Z,101251.19
2022-10-28T09:40:14.398Z,101252.50
2022-10-28T09:42:42.821Z,101247.19
2022-10-28T09:45:13.885Z,101259.97
2022-10-28T09:47:56.125Z,101258.78
2022-10-28T09:50:24.135Z,101260.81
2022-10-28T09:53:09.585Z,101254.03
2022-10-28T09:55:36.142Z,101266.03
2022-10-28T09:58:03.349Z,101261.28
2022-10-28T10:00:29.940Z,101265.94
2022-10-28T10:03:00.233Z,101269.78
2022-10-28T10:05:27.991Z,101269.03
2022-10-28T10:07:59.293Z,101273.41
2022-10-28T10:10:25.961Z,101270.72
2022-10-28T10:12:54.221Z,101277.25
2022-10-28T10:15:31.991Z,101275.66
2022-10-28T10:18:00.267Z,101278.47
2022-10-28T10:20:27.059Z,101268.84
2022-10-28T10:22:53.801Z,101270.63
2022-10-28T10:25:20.585Z,101260.81
2022-10-28T10:27:59.103Z,101266.03
2022-10-28T10:30:28.973Z,101257.31
2022-10-28T10:32:56.088Z,101265.75
2022-10-28T10:35:28.249Z,101274.31
2022-10-28T10:37:57.014Z,101267.78
2022-10-28T10:40:23.965Z,101263.56
2022-10-28T10:43:09.468Z,101268.41
2022-10-28T10:45:37.547Z,101269.91
2022-10-28T10:48:14.647Z,101262.16
2022-10-28T10:50:42.771Z,101254.78
2022-10-28T10:53:17.289Z,101265.22
2022-10-28T10:55:48.778Z,101261.97
2022-10-28T10:58:20.465Z,101258.63
2022-10-28T11:00:55.390Z,101260.78
2022-10-28T11:03:42.172Z,101256.63
2022-10-28T11:06:23.500Z,101256.31
2022-10-28T11:08:58.556Z,101251.16
2022-10-28T11:11:32.824Z,101251.50
2022-10-28T11:14:22.789Z,101239.06
2022-10-28T11:16:56.807Z,101233.50
2022-10-28T11:19:33.729Z,101226.75
2022-10-28T11:22:18.293Z,101219.50
2022-10-28T11:24:50.579Z,101215.25
2022-10-28T11:27:19.947Z,101220.91
2022-10-28T11:29:46.875Z,101216.50
2022-10-28T11:32:19.590Z,101218.19
2022-10-28T11:35:09.809Z,101218.13
2022-10-28T11:37:48.780Z,101220.09
2022-10-28T11:40:21.471Z,101222.53
2022-10-28T11:43:03.517Z,101225.19
2022-10-28T11:45:30.044Z,101218.25
2022-10-28T11:48:15.043Z,101224.75
2022-10-28T11:50:46.153Z,101211.97
2022-10-28T11:53:21.820Z,101219.91
2022-10-28T11:55:53.899Z,101214.44
2022-10-28T11:58:31.384Z,101217.69
2022-10-28T12:00:58.051Z,101205.59
2022-10-28T12:03:33.539Z,101203.53
2022-10-28T12:06:20.354Z,101203.72
2022-10-28T12:08:53.218Z,101199.09
2022-10-28T12:11:32.523Z,101203.91
2022-10-28T12:14:07.052Z,101189.81
2022-10-28T12:16:41.028Z,101194.97
2022-10-28T12:19:14.289Z,101189.53
2022-10-28T12:21:44.019Z,101191.66
2022-10-28T12:24:20.181Z,101185.63
2022-10-28T12:26:50.409Z,101194.88
2022-10-28T12:29:37.277Z,101186.84
2022-10-28T12:32:09.428Z,101193.66
2022-10-28T12:34:39.361Z,101196.47
2022-10-28T12:37:11.471Z,101186.03
2022-10-28T12:39:45.355Z,101193.91
2022-10-28T12:42:28.988Z,101195.38
2022-10-28T12:44:57.268Z,101202.22
2022-10-28T12:47:26.821Z,101188.38
2022-10-28T12:50:02.766Z,101183.16
2022-10-28T12:52:30.225Z,101178.16
2022-10-28T12:55:03.215Z,101184.53
2022-10-28T12:57:30.870Z,101182.13
2022-10-28T13:00:17.732Z,101172.72
2022-10-28T13:02:50.931Z,101176.34
2022-10-28T13:05:29.302Z,101175.97
2022-10-28T13:07:58.537Z,101166.50
2022-10-28T13:10:40.080Z,101169.31
2022-10-28T13:13:18.108Z,101163.75
2022-10-28T13:16:03.720Z,101156.09
2022-10-28T13:18:39.485Z,101165.66
2022-10-28T13:21:06.281Z,101163.69
2022-10-28T13:23:46.122Z,101167.28
2022-10-28T13:26:21.667Z,101168.28
2022-10-28T13:28:49.502Z,101170.06
2022-10-28T13:31:16.466Z,101175.72
2022-10-28T13:33:52.194Z,101166.88
2022-10-28T13:36:24.941Z,101169.28
2022-10-28T13:38:56.499Z,101171.50
2022-10-28T13:41:44.684Z,101172.31
2022-10-28T13:44:22.788Z,101166.91
2022-10-28T13:47:08.120Z,101167.50
2022-10-28T13:49:35.575Z,101167.50
2022-10-28T13:52:08.283Z,101166.09
2022-10-28T13:54:43.940Z,101167.69
2022-10-28T13:57:15.845Z,101168.41
2022-10-28T13:59:50.967Z,101166.41
2022-10-28T14:02:34.443Z,101163.94
2022-10-28T14:05:04.440Z,101166.72
2022-10-28T14:07:32.299Z,101172.75
2022-10-28T14:10:11.781Z,101172.38
2022-10-28T14:12:47.317Z,101167.16
2022-10-28T14:15:13.943Z,101166.16
2022-10-28T14:17:41.686Z,101170.31
2022-10-28T14:20:21.374Z,101174.31
2022-10-28T14:22:48.164Z,101171.88
2022-10-28T14:25:33.545Z,101165.69
2022-10-28T14:28:00.102Z,101164.31
2022-10-28T14:30:26.791Z,101170.31
2022-10-28T14:32:58.126Z,101169.97
2022-10-28T14:35:39.189Z,101166.16
2022-10-28T14:38:08.706Z,101174.72
2022-10-28T14:40:36.163Z,101169.97
2022-10-28T14:43:19.209Z,101172.59
2022-10-28T14:45:52.065Z,101166.06
2022-10-28T14:48:27.733Z,101169.88
2022-10-28T14:50:56.052Z,101165.66
2022-10-28T14:53:27.970Z,101163.69
2022-10-28T14:56:00.166Z,101164.31
2022-10-28T14:58:28.903Z,101163.31
2022-10-28T15:01:01.697Z,101167.72
2022-10-28T15:03:28.906Z,101163.06
2022-10-28T15:05:56.354Z,101160.00
2022-10-28T15:08:25.162Z,101155.63
2022-10-28T15:10:51.861Z,101162.06
2022-10-28T15:13:20.306Z,101155.44
2022-10-28T15:15:54.086Z,101151.75
2022-10-28T15:18:22.453Z,101150.75
2022-10-28T15:20:50.106Z,101153.94
2022-10-28T15:23:18.464Z,101147.94
2022-10-28T15:25:45.168Z,101143.34
2022-10-28T15:28:12.812Z,101141.16
2022-10-28T15:30:45.775Z,101138.72
2022-10-28T15:33:31.302Z,101133.91
2022-10-28T15:36:17.800Z,101134.53
2022-10-28T15:38:44.960Z,101131.53
2022-10-28T15:41:34.603Z,101140.97
2022-10-28T15:44:01.889Z,101141.63
2022-10-28T15:46:28.977Z,101142.75
2022-10-28T15:48:59.554Z,101141.31
2022-10-28T15:51:26.528Z,101139.50
2022-10-28T15:53:56.558Z,101147.50
2022-10-28T15:56:24.242Z,101138.25
2022-10-28T15:59:14.155Z,101137.63
2022-10-28T16:01:41.045Z,101139.63
2022-10-28T16:04:23.143Z,101130.19
2022-10-28T16:06:51.291Z,101142.59
2022-10-28T16:09:28.068Z,101132.31
2022-10-28T16:11:57.510Z,101135.59
2022-10-28T16:14:43.037Z,101134.19
2022-10-28T16:17:16.025Z,101132.41
2022-10-28T16:19:44.978Z,101137.06
2022-10-28T16:22:12.740Z,101135.00
2022-10-28T16:24:41.179Z,101145.66
2022-10-28T16:27:21.115Z,101140.84
2022-10-28T16:29:48.114Z,101148.28
2022-10-28T16:32:15.975Z,101150.28
2022-10-28T16:34:42.869Z,101149.28
2022-10-28T16:37:20.327Z,101148.28
2022-10-28T16:39:47.115Z,101143.53
2022-10-28T16:42:14.154Z,101146.25
2022-10-28T16:44:40.702Z,101143.41
2022-10-28T16:47:17.605Z,101146.56
2022-10-28T16:49:44.233Z,101153.03
2022-10-28T16:52:15.608Z,101156.06
2022-10-28T16:54:42.300Z,101149.84
2022-10-28T16:57:08.956Z,101150.66
2022-10-28T16:59:37.374Z,101153.03
2022-10-28T17:02:04.962Z,101152.41
2022-10-28T17:04:31.926Z,101153.38
2022-10-28T17:06:58.650Z,101161.56
2022-10-28T17:09:25.260Z,101160.97
2022-10-28T17:11:51.791Z,101160.56
2022-10-28T17:14:18.326Z,101159.94
2022-10-28T17:16:44.976Z,101155.78
2022-10-28T17:19:11.652Z,101154.16
2022-10-28T17:21:38.211Z,101156.75
2022-10-28T17:24:04.937Z,101146.56
2022-10-28T17:26:31.480Z,101148.34
2022-10-28T17:28:58.078Z,101149.78
2022-10-28T17:31:25.763Z,101162.56
2022-10-28T17:33:53.046Z,101161.31
2022-10-28T17:36:19.554Z,101165.28
2022-10-28T17:38:48.735Z,101173.38
2022-10-28T17:41:15.339Z,101166.19
2022-10-28T17:43:42.446Z,101176.22
2022-10-28T17:46:09.851Z,101181.41
2022-10-28T17:48:36.606Z,101187.44
2022-10-28T17:51:03.305Z,101184.28
2022-10-28T17:53:29.945Z,101180.84
2022-10-28T17:56:00.590Z,101180.34
2022-10-28T17:58:27.669Z,101183.53
2022-10-28T18:01:01.383Z,101175.84
2022-10-28T18:03:29.986Z,101170.00
2022-10-28T18:06:01.929Z,101178.19
2022-10-28T18:08:32.109Z,101180.44
2022-10-28T18:11:00.206Z,101178.59
2022-10-28T18:13:28.039Z,101174.19
2022-10-28T18:15:54.684Z,101168.22
2022-10-28T18:18:21.244Z,101162.81
2022-10-28T18:20:57.114Z,101164.81
2022-10-28T18:23:24.110Z,101160.97
2022-10-28T18:26:01.097Z,101152.88
2022-10-28T18:28:32.816Z,101150.88
2022-10-28T18:31:07.291Z,101156.44
2022-10-28T18:33:34.166Z,101154.88
2022-10-28T18:36:01.113Z,101153.50
2022-10-28T18:38:27.815Z,101147.31
2022-10-28T18:40:54.633Z,101141.94
2022-10-28T18:43:23.024Z,101138.50
2022-10-28T18:45:50.530Z,101140.31
2022-10-28T18:48:17.496Z,101140.47
2022-10-28T18:50:46.965Z,101147.31
2022-10-28T18:53:15.848Z,101146.31
2022-10-28T18:55:42.364Z,101142.22
2022-10-28T18:58:11.704Z,101143.19
2022-10-28T19:00:40.157Z,101146.78
2022-10-28T19:03:06.764Z,101131.16
2022-10-28T19:05:33.322Z,101140.81
2022-10-28T19:08:00.249Z,101141.03
2022-10-28T19:10:26.898Z,101137.72
2022-10-28T19:12:53.485Z,101143.28
2022-10-28T19:15:20.015Z,101134.72
2022-10-28T19:17:46.571Z,101140.44
2022-10-28T19:20:13.151Z,101141.63
2022-10-28T19:22:39.874Z,101145.41
2022-10-28T19:25:06.639Z,101151.59
2022-10-28T19:27:33.868Z,101151.00
2022-10-28T19:30:06.457Z,101155.81
2022-10-28T19:32:37.781Z,101149.72
2022-10-28T19:35:04.559Z,101152.38
2022-10-28T19:37:31.135Z,101153.16
2022-10-28T19:39:58.953Z,101148.78
2022-10-28T19:42:25.752Z,101150.03
2022-10-28T19:44:52.300Z,101144.81
2022-10-28T19:47:18.800Z,101142.22
2022-10-28T19:49:46.841Z,101147.97
2022-10-28T19:52:13.386Z,101148.41
2022-10-28T19:54:39.898Z,101148.41
2022-10-28T19:57:06.541Z,101146.78
2022-10-28T19:59:33.115Z,101150.38
2022-10-28T20:01:59.817Z,101147.41
2022-10-28T20:04:26.985Z,101156.03
2022-10-28T20:06:53.580Z,101148.78
2022-10-28T20:09:22.910Z,101149.75
2022-10-28T20:11:53.057Z,101146.25
2022-10-28T20:14:19.724Z,101151.88
2022-10-28T20:16:48.621Z,101147.66
2022-10-28T20:19:15.289Z,101146.44
2022-10-28T20:21:41.888Z,101143.44
2022-10-28T20:24:08.719Z,101147.59
2022-10-28T20:26:36.274Z,101145.19
2022-10-28T20:29:14.633Z,101140.81
2022-10-28T20:31:42.515Z,101135.75
2022-10-28T20:34:09.293Z,101143.56
2022-10-28T20:36:40.059Z,101138.00
2022-10-28T20:39:10.771Z,101131.59
2022-10-28T20:41:40.095Z,101140.47
2022-10-28T20:44:06.895Z,101139.09
2022-10-28T20:46:33.946Z,101136.13
2022-10-28T20:49:00.993Z,101138.75
2022-10-28T20:51:28.664Z,101128.94
2022-10-28T20:53:55.447Z,101128.56
2022-10-28T20:56:24.175Z,101129.72
2022-10-28T20:58:50.881Z,101129.31
2022-10-28T21:01:18.933Z,101137.53
2022-10-28T21:03:45.979Z,101140.53
2022-10-28T21:08:45.223Z,101142.03
2022-10-28T21:11:12.950Z,101139.59
2022-10-28T21:13:40.369Z,101138.53
2022-10-28T21:16:08.052Z,101141.94
2022-10-28T21:18:35.628Z,101144.19
2022-10-28T21:21:02.384Z,101136.00
2022-10-28T21:23:29.410Z,101137.63
2022-10-28T21:25:56.689Z,101135.81
2022-10-28T21:28:23.516Z,101148.84
2022-10-28T21:30:50.107Z,101156.44
2022-10-28T21:33:19.386Z,101146.78
2022-10-28T21:35:54.222Z,101145.19
2022-10-28T21:38:20.761Z,101137.91
2022-10-28T21:40:47.487Z,101151.09
2022-10-28T21:43:14.205Z,101134.00
2022-10-28T21:45:40.727Z,101131.00
2022-10-28T21:48:07.291Z,101126.69
2022-10-28T21:50:33.973Z,101143.19
2022-10-28T21:53:04.191Z,101133.22
2022-10-28T21:55:46.187Z,101123.59
2022-10-28T21:58:13.722Z,101133.47
2022-10-28T22:00:40.730Z,101128.44
2022-10-28T22:03:07.532Z,101119.63
2022-10-28T22:05:34.280Z,101122.31
2022-10-28T22:08:03.168Z,101116.09
2022-10-28T22:10:31.694Z,101114.31
2022-10-28T22:12:59.299Z,101110.44
2022-10-28T22:15:25.997Z,101112.25
2022-10-28T22:17:52.759Z,101111.97
2022-10-28T22:20:19.536Z,101113.59
2022-10-28T22:22:46.199Z,101123.88
2022-10-28T22:25:12.760Z,101122.88
2022-10-28T22:27:39.269Z,101128.69
2022-10-28T22:30:06.138Z,101115.66
2022-10-28T22:32:32.755Z,101117.66
2022-10-28T22:34:59.308Z,101126.47
2022-10-28T22:37:25.901Z,101127.28
2022-10-28T22:39:52.501Z,101117.28
2022-10-28T22:42:19.073Z,101120.91
2022-10-28T22:44:45.614Z,101117.78
2022-10-28T22:47:12.100Z,101115.41
2022-10-28T22:49:38.615Z,101112.25
2022-10-28T22:52:05.264Z,101102.81
2022-10-28T22:54:31.892Z,101097.78
2022-10-28T22:56:58.643Z,101105.78
2022-10-28T22:59:25.567Z,101098.59
2022-10-28T23:01:52.199Z,101104.00
2022-10-28T23:04:18.828Z,101106.59
2022-10-28T23:06:45.448Z,101109.03
2022-10-28T23:09:12.004Z,101099.63
2022-10-28T23:11:38.545Z,101099.03
2022-10-28T23:14:05.177Z,101104.63
2022-10-28T23:16:31.780Z,101098.78
2022-10-28T23:19:00.601Z,101091.31
2022-10-28T23:21:27.356Z,101076.69
2022-10-28T23:23:55.331Z,101077.09
2022-10-28T23:26:22.235Z,101077.19
2022-10-28T23:28:56.099Z,101084.78
2022-10-28T23:31:23.019Z,101079.72
2022-10-28T23:33:50.909Z,101085.94
2022-10-28T23:36:17.637Z,101086.13
2022-10-28T23:38:44.411Z,101080.72
2022-10-28T23:41:12.473Z,101077.59
2022-10-28T23:43:39.290Z,101078.81
2022-10-28T23:46:05.914Z,101078.38
2022-10-28T23:48:32.585Z,101077.59
2022-10-28T23:50:59.304Z,101075.97
2022-10-28T23:53:26.336Z,101088.19
2022-10-28T23:55:53.262Z,101080.19
2022-10-28T23:58:20.790Z,101073.56
